VTK503 ROAH-UHSS
Flight info
| Callsign | VTK503 |
|---|---|
| Flight time | 3h 4m |
| Altitude | 41000 |
| Route | AMAMI Y53 SUC V53 KTE V38 YME Y381 GOLDO Y19 MRE V13 TIKYU Y13 CHE Y10 WKE B223 LUMIN R490 PERUB PERUB2A |
| Aircraft | A359/H-SDE2E3GHIJ3J4J5LM1ORWXY/LB1D1 |
Departure
| Time | 2026-04-18 11:12 |
|---|---|
| Airport | Naha International Airport (ROAH) |
Arrival
| Time | 2026-04-18 14:16 |
|---|---|
| Airport | Yuzhno-Sakhalinsk International Airport (UHSS) |
| Time | Latitude | Longitude | Altitude | Speed | Heading |
|---|---|---|---|---|---|
| 2026-04-18 10:47 | 26.20828 | 127.64848 | 27 ft | 0 kts | 136° |
| 2026-04-18 10:59 | 26.20828 | 127.64847 | 27 ft | 2 kts | 136° |
| 2026-04-18 10:59 | 26.20840 | 127.64834 | 26 ft | 2 kts | 134° |
| 2026-04-18 10:59 | 26.20851 | 127.64821 | 24 ft | 2 kts | 131° |
| 2026-04-18 11:00 | 26.20862 | 127.64806 | 31 ft | 2 kts | 127° |
| 2026-04-18 11:00 | 26.20871 | 127.64791 | 31 ft | 2 kts | 118° |
| 2026-04-18 11:00 | 26.20877 | 127.64774 | 30 ft | 2 kts | 124° |
| 2026-04-18 11:00 | 26.20891 | 127.64764 | 30 ft | 2 kts | 154° |
| 2026-04-18 11:01 | 26.20906 | 127.64757 | 29 ft | 2 kts | 159° |
| 2026-04-18 11:01 | 26.20922 | 127.64751 | 24 ft | 2 kts | 161° |
| 2026-04-18 11:01 | 26.20938 | 127.64745 | 29 ft | 2 kts | 163° |
| 2026-04-18 11:02 | 26.20970 | 127.64736 | 29 ft | 2 kts | 168° |
| 2026-04-18 11:02 | 26.20983 | 127.64733 | 29 ft | 1 kts | 175° |
| 2026-04-18 11:02 | 26.20985 | 127.64733 | 29 ft | 0 kts | 179° |
| 2026-04-18 11:04 | 26.20946 | 127.64732 | 29 ft | 10 kts | 180° |
| 2026-04-18 11:04 | 26.20864 | 127.64733 | 26 ft | 14 kts | 179° |
| 2026-04-18 11:05 | 26.20759 | 127.64737 | 25 ft | 17 kts | 176° |
| 2026-04-18 11:05 | 26.20637 | 127.64746 | 26 ft | 18 kts | 177° |
| 2026-04-18 11:05 | 26.20506 | 127.64752 | 29 ft | 19 kts | 178° |
| 2026-04-18 11:05 | 26.20368 | 127.64759 | 26 ft | 21 kts | 178° |
| 2026-04-18 11:06 | 26.20216 | 127.64765 | 26 ft | 23 kts | 178° |
| 2026-04-18 11:06 | 26.20051 | 127.64772 | 26 ft | 25 kts | 178° |
| 2026-04-18 11:06 | 26.19871 | 127.64780 | 26 ft | 27 kts | 177° |
| 2026-04-18 11:06 | 26.19676 | 127.64791 | 26 ft | 29 kts | 177° |
| 2026-04-18 11:07 | 26.19475 | 127.64801 | 26 ft | 29 kts | 177° |
| 2026-04-18 11:07 | 26.19270 | 127.64810 | 27 ft | 31 kts | 178° |
| 2026-04-18 11:07 | 26.19049 | 127.64820 | 27 ft | 29 kts | 177° |
| 2026-04-18 11:07 | 26.18859 | 127.64828 | 26 ft | 27 kts | 177° |
| 2026-04-18 11:08 | 26.18670 | 127.64838 | 26 ft | 28 kts | 178° |
| 2026-04-18 11:08 | 26.18473 | 127.64847 | 25 ft | 29 kts | 177° |
| 2026-04-18 11:08 | 26.18325 | 127.64853 | 24 ft | 12 kts | 180° |
| 2026-04-18 11:08 | 26.18251 | 127.64808 | 23 ft | 13 kts | 247° |
| 2026-04-18 11:09 | 26.18240 | 127.64708 | 22 ft | 13 kts | 265° |
| 2026-04-18 11:09 | 26.18281 | 127.64651 | 22 ft | 8 kts | 348° |
| 2026-04-18 11:09 | 26.18308 | 127.64649 | 23 ft | 0 kts | 356° |
| 2026-04-18 11:11 | 26.18379 | 127.64644 | 24 ft | 39 kts | 356° |
| 2026-04-18 11:11 | 26.18910 | 127.64620 | 27 ft | 111 kts | 358° |
| 2026-04-18 11:11 | 26.19887 | 127.64571 | 93 ft | 165 kts | 358° |
| 2026-04-18 11:12 | 26.21034 | 127.64523 | 820 ft | 161 kts | 359° |
| 2026-04-18 11:12 | 26.22198 | 127.64465 | 1381 ft | 180 kts | 358° |
| 2026-04-18 11:12 | 26.23555 | 127.64405 | 1622 ft | 210 kts | 358° |
| 2026-04-18 11:12 | 26.25101 | 127.64287 | 1834 ft | 235 kts | 350° |
| 2026-04-18 11:13 | 26.26689 | 127.63617 | 2144 ft | 254 kts | 332° |
| 2026-04-18 11:13 | 26.28256 | 127.62638 | 2748 ft | 260 kts | 329° |
| 2026-04-18 11:13 | 26.29815 | 127.61635 | 3527 ft | 257 kts | 328° |
| 2026-04-18 11:13 | 26.31368 | 127.60638 | 4228 ft | 259 kts | 328° |
| 2026-04-18 11:14 | 26.32937 | 127.59643 | 4890 ft | 261 kts | 328° |
| 2026-04-18 11:14 | 26.34530 | 127.58626 | 5486 ft | 266 kts | 328° |
| 2026-04-18 11:14 | 26.36135 | 127.57603 | 6223 ft | 265 kts | 328° |
| 2026-04-18 11:14 | 26.37748 | 127.56583 | 6813 ft | 269 kts | 328° |
| 2026-04-18 11:15 | 26.39356 | 127.55520 | 7433 ft | 269 kts | 322° |
| 2026-04-18 11:15 | 26.40663 | 127.54055 | 8050 ft | 266 kts | 301° |
| 2026-04-18 11:15 | 26.41307 | 127.52136 | 8667 ft | 267 kts | 278° |
| 2026-04-18 11:15 | 26.41157 | 127.50080 | 9304 ft | 271 kts | 255° |
| 2026-04-18 11:16 | 26.40241 | 127.48225 | 9901 ft | 278 kts | 236° |
| 2026-04-18 11:16 | 26.38982 | 127.46559 | 10333 ft | 287 kts | 232° |
| 2026-04-18 11:16 | 26.37617 | 127.44852 | 10568 ft | 302 kts | 232° |
| 2026-04-18 11:16 | 26.36163 | 127.43072 | 10778 ft | 317 kts | 229° |
| 2026-04-18 11:17 | 26.34356 | 127.41561 | 11005 ft | 335 kts | 210° |
| 2026-04-18 11:17 | 26.32074 | 127.40849 | 11416 ft | 348 kts | 189° |
| 2026-04-18 11:17 | 26.29635 | 127.40785 | 11918 ft | 353 kts | 183° |
| 2026-04-18 11:17 | 26.27174 | 127.40841 | 12406 ft | 355 kts | 182° |
| 2026-04-18 11:18 | 26.24690 | 127.40905 | 12893 ft | 357 kts | 182° |
| 2026-04-18 11:18 | 26.22198 | 127.40957 | 13373 ft | 359 kts | 183° |
| 2026-04-18 11:18 | 26.19692 | 127.40999 | 13860 ft | 361 kts | 183° |
| 2026-04-18 11:18 | 26.17176 | 127.41110 | 14272 ft | 365 kts | 178° |
| 2026-04-18 11:19 | 26.14684 | 127.41760 | 14672 ft | 373 kts | 162° |
| 2026-04-18 11:19 | 26.12405 | 127.43189 | 15096 ft | 382 kts | 145° |
| 2026-04-18 11:19 | 26.10560 | 127.45352 | 15518 ft | 389 kts | 127° |
| 2026-04-18 11:19 | 26.09354 | 127.48063 | 15934 ft | 396 kts | 109° |
| 2026-04-18 11:20 | 26.08926 | 127.51060 | 16336 ft | 401 kts | 91° |
| 2026-04-18 11:20 | 26.09241 | 127.54144 | 16733 ft | 403 kts | 79° |
| 2026-04-18 11:20 | 26.09820 | 127.57244 | 17135 ft | 406 kts | 78° |
| 2026-04-18 11:20 | 26.10425 | 127.60326 | 17530 ft | 409 kts | 78° |
| 2026-04-18 11:21 | 26.11016 | 127.63389 | 17907 ft | 412 kts | 78° |
| 2026-04-18 11:21 | 26.11614 | 127.66557 | 18295 ft | 414 kts | 78° |
| 2026-04-18 11:21 | 26.12190 | 127.69661 | 18614 ft | 417 kts | 78° |
| 2026-04-18 11:21 | 26.12781 | 127.72872 | 18944 ft | 420 kts | 79° |
| 2026-04-18 11:22 | 26.13357 | 127.76023 | 19260 ft | 422 kts | 79° |
| 2026-04-18 11:22 | 26.13941 | 127.79234 | 19610 ft | 425 kts | 79° |
| 2026-04-18 11:22 | 26.14529 | 127.82468 | 19934 ft | 428 kts | 79° |
| 2026-04-18 11:22 | 26.15119 | 127.85725 | 20245 ft | 430 kts | 79° |
| 2026-04-18 11:23 | 26.15521 | 127.87935 | 20446 ft | 432 kts | 79° |
| 2026-04-18 11:23 | 26.16629 | 127.92203 | 20842 ft | 436 kts | 66° |
| 2026-04-18 11:23 | 26.18088 | 127.95160 | 21158 ft | 436 kts | 53° |
| 2026-04-18 11:23 | 26.20078 | 127.97694 | 21446 ft | 435 kts | 40° |
| 2026-04-18 11:24 | 26.22454 | 127.99767 | 21746 ft | 435 kts | 32° |
| 2026-04-18 11:24 | 26.24973 | 128.01653 | 22058 ft | 436 kts | 30° |
| 2026-04-18 11:24 | 26.27544 | 128.03443 | 22345 ft | 438 kts | 28° |
| 2026-04-18 11:24 | 26.30160 | 128.05207 | 22645 ft | 440 kts | 27° |
| 2026-04-18 11:25 | 26.32792 | 128.06970 | 22937 ft | 442 kts | 27° |
| 2026-04-18 11:25 | 26.34537 | 128.08146 | 23133 ft | 444 kts | 28° |
| 2026-04-18 11:25 | 26.37183 | 128.09948 | 23411 ft | 447 kts | 28° |
| 2026-04-18 11:25 | 26.39831 | 128.11776 | 23666 ft | 449 kts | 28° |
| 2026-04-18 11:26 | 26.42483 | 128.13624 | 23902 ft | 451 kts | 28° |
| 2026-04-18 11:26 | 26.45149 | 128.15492 | 24140 ft | 453 kts | 28° |
| 2026-04-18 11:26 | 26.47818 | 128.17370 | 24383 ft | 455 kts | 28° |
| 2026-04-18 11:26 | 26.50503 | 128.19260 | 24618 ft | 457 kts | 28° |
| 2026-04-18 11:27 | 26.53191 | 128.21153 | 24853 ft | 459 kts | 28° |
| 2026-04-18 11:27 | 26.55898 | 128.23060 | 25092 ft | 460 kts | 28° |
| 2026-04-18 11:27 | 26.58615 | 128.24973 | 25317 ft | 463 kts | 28° |
| 2026-04-18 11:27 | 26.61342 | 128.26894 | 25549 ft | 465 kts | 28° |
| 2026-04-18 11:28 | 26.64082 | 128.28824 | 25786 ft | 466 kts | 28° |
| 2026-04-18 11:28 | 26.66835 | 128.30765 | 26033 ft | 468 kts | 28° |
| 2026-04-18 11:28 | 26.69597 | 128.32713 | 26273 ft | 470 kts | 28° |
| 2026-04-18 11:28 | 26.72372 | 128.34671 | 26507 ft | 472 kts | 28° |
| 2026-04-18 11:29 | 26.75155 | 128.36636 | 26740 ft | 475 kts | 28° |
| 2026-04-18 11:29 | 26.77949 | 128.38611 | 26975 ft | 477 kts | 28° |
| 2026-04-18 11:29 | 26.80763 | 128.40600 | 27212 ft | 479 kts | 28° |
| 2026-04-18 11:29 | 26.83587 | 128.42598 | 27457 ft | 481 kts | 28° |
| 2026-04-18 11:30 | 26.86422 | 128.44605 | 27716 ft | 483 kts | 28° |
| 2026-04-18 11:30 | 26.89270 | 128.46622 | 27966 ft | 485 kts | 28° |
| 2026-04-18 11:30 | 26.92127 | 128.48647 | 28205 ft | 488 kts | 28° |
| 2026-04-18 11:30 | 26.95000 | 128.50685 | 28469 ft | 490 kts | 28° |
| 2026-04-18 11:31 | 26.97886 | 128.52732 | 28743 ft | 492 kts | 28° |
| 2026-04-18 11:31 | 27.00785 | 128.54790 | 28995 ft | 494 kts | 28° |
| 2026-04-18 11:31 | 27.03703 | 128.56863 | 29249 ft | 497 kts | 28° |
| 2026-04-18 11:31 | 27.06624 | 128.58940 | 29522 ft | 499 kts | 28° |
| 2026-04-18 11:32 | 27.09564 | 128.61031 | 29787 ft | 501 kts | 28° |
| 2026-04-18 11:32 | 27.12520 | 128.63135 | 30050 ft | 504 kts | 28° |
| 2026-04-18 11:32 | 27.15484 | 128.65246 | 30283 ft | 506 kts | 28° |
| 2026-04-18 11:32 | 27.18462 | 128.67368 | 30522 ft | 508 kts | 28° |
| 2026-04-18 11:33 | 27.21414 | 128.69475 | 30772 ft | 510 kts | 28° |
| 2026-04-18 11:33 | 27.24454 | 128.71644 | 31029 ft | 512 kts | 28° |
| 2026-04-18 11:33 | 27.27471 | 128.73799 | 31279 ft | 514 kts | 28° |
| 2026-04-18 11:33 | 27.30450 | 128.75929 | 31524 ft | 516 kts | 28° |
| 2026-04-18 11:34 | 27.33489 | 128.78102 | 31769 ft | 519 kts | 28° |
| 2026-04-18 11:34 | 27.36584 | 128.80316 | 32010 ft | 521 kts | 28° |
| 2026-04-18 11:34 | 27.39605 | 128.82479 | 32234 ft | 523 kts | 28° |
| 2026-04-18 11:34 | 27.42676 | 128.84679 | 32470 ft | 525 kts | 28° |
| 2026-04-18 11:35 | 27.45771 | 128.86898 | 32696 ft | 528 kts | 28° |
| 2026-04-18 11:35 | 27.48872 | 128.89123 | 32932 ft | 530 kts | 28° |
| 2026-04-18 11:35 | 27.51987 | 128.91359 | 33159 ft | 532 kts | 28° |
| 2026-04-18 11:35 | 27.55111 | 128.93603 | 33366 ft | 534 kts | 28° |
| 2026-04-18 11:36 | 27.58245 | 128.95856 | 33593 ft | 536 kts | 28° |
| 2026-04-18 11:36 | 27.61397 | 128.98124 | 33811 ft | 538 kts | 28° |
| 2026-04-18 11:36 | 27.64555 | 129.00397 | 33997 ft | 541 kts | 28° |
| 2026-04-18 11:36 | 27.67734 | 129.02688 | 34181 ft | 543 kts | 28° |
| 2026-04-18 11:37 | 27.70920 | 129.04984 | 34357 ft | 545 kts | 28° |
| 2026-04-18 11:37 | 27.74121 | 129.07294 | 34574 ft | 546 kts | 28° |
| 2026-04-18 11:37 | 27.77321 | 129.09605 | 34817 ft | 546 kts | 28° |
| 2026-04-18 11:37 | 27.80518 | 129.11916 | 35072 ft | 547 kts | 28° |
| 2026-04-18 11:38 | 27.83723 | 129.14234 | 35331 ft | 547 kts | 28° |
| 2026-04-18 11:38 | 27.86931 | 129.16555 | 35581 ft | 548 kts | 28° |
| 2026-04-18 11:38 | 27.90139 | 129.18878 | 35826 ft | 548 kts | 28° |
| 2026-04-18 11:38 | 27.93354 | 129.21207 | 36097 ft | 549 kts | 28° |
| 2026-04-18 11:39 | 27.96568 | 129.23537 | 36367 ft | 549 kts | 28° |
| 2026-04-18 11:39 | 27.99779 | 129.25867 | 36630 ft | 549 kts | 28° |
| 2026-04-18 11:39 | 28.02994 | 129.28201 | 36884 ft | 550 kts | 28° |
| 2026-04-18 11:39 | 28.06216 | 129.30542 | 37152 ft | 550 kts | 28° |
| 2026-04-18 11:40 | 28.09441 | 129.32887 | 37423 ft | 551 kts | 28° |
| 2026-04-18 11:40 | 28.12663 | 129.35231 | 37686 ft | 551 kts | 28° |
| 2026-04-18 11:40 | 28.15891 | 129.37581 | 37941 ft | 552 kts | 28° |
| 2026-04-18 11:40 | 28.19123 | 129.39937 | 38222 ft | 552 kts | 28° |
| 2026-04-18 11:41 | 28.22344 | 129.42289 | 38491 ft | 552 kts | 28° |
| 2026-04-18 11:41 | 28.25581 | 129.44653 | 38724 ft | 552 kts | 28° |
| 2026-04-18 11:41 | 28.28814 | 129.47010 | 38900 ft | 553 kts | 28° |
| 2026-04-18 11:41 | 28.32035 | 129.49362 | 39199 ft | 551 kts | 28° |
| 2026-04-18 11:42 | 28.35252 | 129.51716 | 39491 ft | 549 kts | 28° |
| 2026-04-18 11:42 | 28.38413 | 129.54030 | 39740 ft | 548 kts | 28° |
| 2026-04-18 11:42 | 28.41623 | 129.56384 | 39964 ft | 547 kts | 28° |
| 2026-04-18 11:42 | 28.44855 | 129.58754 | 40178 ft | 547 kts | 28° |
| 2026-04-18 11:43 | 28.48053 | 129.61097 | 40423 ft | 546 kts | 28° |
| 2026-04-18 11:43 | 28.51202 | 129.63398 | 40655 ft | 545 kts | 28° |
| 2026-04-18 11:43 | 28.54390 | 129.65725 | 40867 ft | 544 kts | 28° |
| 2026-04-18 11:43 | 28.57589 | 129.68058 | 40945 ft | 547 kts | 28° |
| 2026-04-18 11:44 | 28.64028 | 129.72762 | 40953 ft | 551 kts | 28° |
| 2026-04-18 11:44 | 28.70476 | 129.77489 | 40964 ft | 551 kts | 28° |
| 2026-04-18 11:45 | 28.76917 | 129.82220 | 40975 ft | 551 kts | 28° |
| 2026-04-18 11:45 | 28.83365 | 129.86962 | 40980 ft | 551 kts | 28° |
| 2026-04-18 11:46 | 28.89816 | 129.91713 | 40981 ft | 552 kts | 28° |
| 2026-04-18 11:46 | 28.96266 | 129.96469 | 40978 ft | 552 kts | 28° |
| 2026-04-18 11:47 | 29.02708 | 130.01228 | 40987 ft | 552 kts | 28° |
| 2026-04-18 11:47 | 29.09162 | 130.06002 | 40980 ft | 553 kts | 28° |
| 2026-04-18 11:48 | 29.15618 | 130.10784 | 40992 ft | 553 kts | 28° |
| 2026-04-18 11:48 | 29.22075 | 130.15576 | 40995 ft | 553 kts | 28° |
| 2026-04-18 11:49 | 29.28543 | 130.20385 | 41005 ft | 555 kts | 28° |
| 2026-04-18 11:49 | 29.34975 | 130.25178 | 40993 ft | 557 kts | 27° |
| 2026-04-18 11:50 | 29.41527 | 130.30061 | 40993 ft | 557 kts | 27° |
| 2026-04-18 11:50 | 29.47981 | 130.34880 | 40992 ft | 558 kts | 27° |
| 2026-04-18 11:51 | 29.54534 | 130.39782 | 41002 ft | 558 kts | 28° |
| 2026-04-18 11:51 | 29.60991 | 130.44620 | 40999 ft | 559 kts | 28° |
| 2026-04-18 11:52 | 29.67508 | 130.49512 | 41000 ft | 559 kts | 28° |
| 2026-04-18 11:52 | 29.74015 | 130.54403 | 40996 ft | 559 kts | 28° |
| 2026-04-18 11:53 | 29.80530 | 130.59309 | 41005 ft | 560 kts | 28° |
| 2026-04-18 11:53 | 29.87047 | 130.64222 | 41010 ft | 560 kts | 28° |
| 2026-04-18 11:54 | 29.93574 | 130.69152 | 41012 ft | 560 kts | 28° |
| 2026-04-18 11:54 | 30.00089 | 130.74082 | 41014 ft | 560 kts | 28° |
| 2026-04-18 11:55 | 30.06601 | 130.79021 | 41018 ft | 560 kts | 28° |
| 2026-04-18 11:55 | 30.13117 | 130.83967 | 41018 ft | 560 kts | 28° |
| 2026-04-18 11:56 | 30.19640 | 130.88927 | 41021 ft | 561 kts | 28° |
| 2026-04-18 11:56 | 30.26154 | 130.93889 | 41019 ft | 561 kts | 28° |
| 2026-04-18 11:57 | 30.32673 | 130.98863 | 41013 ft | 561 kts | 28° |
| 2026-04-18 11:57 | 30.39192 | 131.03846 | 41007 ft | 561 kts | 28° |
| 2026-04-18 11:58 | 30.45702 | 131.08830 | 41005 ft | 561 kts | 28° |
| 2026-04-18 11:58 | 30.52222 | 131.13840 | 41002 ft | 562 kts | 28° |
| 2026-04-18 11:59 | 30.58730 | 131.18849 | 41005 ft | 562 kts | 28° |
| 2026-04-18 11:59 | 30.65206 | 131.23841 | 41011 ft | 562 kts | 28° |
| 2026-04-18 12:00 | 30.71722 | 131.28873 | 41021 ft | 562 kts | 28° |
| 2026-04-18 12:00 | 30.78240 | 131.33915 | 41035 ft | 563 kts | 28° |
| 2026-04-18 12:01 | 30.88018 | 131.41494 | 41039 ft | 563 kts | 28° |
| 2026-04-18 12:02 | 30.94541 | 131.46561 | 41040 ft | 564 kts | 28° |
| 2026-04-18 12:02 | 31.01072 | 131.51642 | 41043 ft | 564 kts | 28° |
| 2026-04-18 12:03 | 31.07602 | 131.56732 | 41044 ft | 564 kts | 28° |
| 2026-04-18 12:03 | 31.14134 | 131.61831 | 41044 ft | 565 kts | 28° |
| 2026-04-18 12:04 | 31.20663 | 131.66937 | 41048 ft | 565 kts | 28° |
| 2026-04-18 12:04 | 31.27197 | 131.72055 | 41042 ft | 566 kts | 28° |
| 2026-04-18 12:05 | 31.33730 | 131.77187 | 41048 ft | 566 kts | 28° |
| 2026-04-18 12:05 | 31.40279 | 131.82325 | 41049 ft | 566 kts | 28° |
| 2026-04-18 12:06 | 31.46816 | 131.87459 | 41051 ft | 566 kts | 28° |
| 2026-04-18 12:06 | 31.53359 | 131.92608 | 41048 ft | 567 kts | 28° |
| 2026-04-18 12:07 | 31.59904 | 131.97772 | 41051 ft | 567 kts | 28° |
| 2026-04-18 12:07 | 31.66451 | 132.02946 | 41053 ft | 567 kts | 28° |
| 2026-04-18 12:08 | 31.72989 | 132.08123 | 41056 ft | 567 kts | 28° |
| 2026-04-18 12:08 | 31.79533 | 132.13312 | 41055 ft | 568 kts | 28° |
| 2026-04-18 12:09 | 31.86091 | 132.18522 | 41053 ft | 569 kts | 28° |
| 2026-04-18 12:09 | 31.92642 | 132.23734 | 41054 ft | 569 kts | 28° |
| 2026-04-18 12:10 | 31.99207 | 132.28969 | 41050 ft | 569 kts | 28° |
| 2026-04-18 12:10 | 32.05759 | 132.34201 | 41052 ft | 569 kts | 28° |
| 2026-04-18 12:11 | 32.12316 | 132.39447 | 41053 ft | 570 kts | 28° |
| 2026-04-18 12:11 | 32.18716 | 132.45032 | 41054 ft | 574 kts | 33° |
| 2026-04-18 12:12 | 32.24856 | 132.50985 | 41054 ft | 575 kts | 34° |
| 2026-04-18 12:12 | 32.31025 | 132.56988 | 41054 ft | 574 kts | 33° |
| 2026-04-18 12:13 | 32.37235 | 132.62933 | 41058 ft | 574 kts | 33° |
| 2026-04-18 12:13 | 32.42407 | 132.67849 | 41057 ft | 573 kts | 33° |
| 2026-04-18 12:14 | 32.48620 | 132.73755 | 41055 ft | 573 kts | 33° |
| 2026-04-18 12:14 | 32.54837 | 132.79679 | 41058 ft | 573 kts | 33° |
| 2026-04-18 12:15 | 32.61036 | 132.85603 | 41058 ft | 573 kts | 32° |
| 2026-04-18 12:15 | 32.67236 | 132.91539 | 41060 ft | 572 kts | 32° |
| 2026-04-18 12:16 | 32.73434 | 132.97485 | 41064 ft | 573 kts | 32° |
| 2026-04-18 12:16 | 32.79669 | 133.03350 | 41052 ft | 570 kts | 31° |
| 2026-04-18 12:17 | 32.86060 | 133.08909 | 41065 ft | 569 kts | 29° |
| 2026-04-18 12:17 | 32.92495 | 133.14402 | 41062 ft | 569 kts | 29° |
| 2026-04-18 12:18 | 32.98910 | 133.19926 | 41068 ft | 569 kts | 30° |
| 2026-04-18 12:18 | 33.05311 | 133.25486 | 41067 ft | 570 kts | 30° |
| 2026-04-18 12:19 | 33.11672 | 133.31036 | 41065 ft | 570 kts | 30° |
| 2026-04-18 12:19 | 33.18076 | 133.36614 | 41065 ft | 570 kts | 30° |
| 2026-04-18 12:20 | 33.24487 | 133.42190 | 41068 ft | 570 kts | 30° |
| 2026-04-18 12:20 | 33.30902 | 133.47783 | 41065 ft | 571 kts | 30° |
| 2026-04-18 12:21 | 33.37315 | 133.53387 | 41057 ft | 571 kts | 30° |
| 2026-04-18 12:21 | 33.43746 | 133.58987 | 41053 ft | 572 kts | 29° |
| 2026-04-18 12:22 | 33.50183 | 133.64595 | 41050 ft | 572 kts | 29° |
| 2026-04-18 12:22 | 33.56932 | 133.69378 | 41056 ft | 558 kts | 16° |
| 2026-04-18 12:23 | 33.64015 | 133.73154 | 41053 ft | 556 kts | 14° |
| 2026-04-18 12:23 | 33.71135 | 133.76761 | 41063 ft | 556 kts | 14° |
| 2026-04-18 12:24 | 33.78268 | 133.80361 | 41068 ft | 556 kts | 14° |
| 2026-04-18 12:24 | 33.85399 | 133.83991 | 41071 ft | 558 kts | 14° |
| 2026-04-18 12:25 | 33.92553 | 133.87640 | 41052 ft | 559 kts | 14° |
| 2026-04-18 12:25 | 33.99727 | 133.91308 | 41065 ft | 560 kts | 14° |
| 2026-04-18 12:26 | 34.06893 | 133.94976 | 41048 ft | 560 kts | 14° |
| 2026-04-18 12:26 | 34.14064 | 133.98647 | 41055 ft | 561 kts | 14° |
| 2026-04-18 12:27 | 34.21159 | 134.02477 | 41048 ft | 569 kts | 20° |
| 2026-04-18 12:27 | 34.27985 | 134.07423 | 41050 ft | 574 kts | 24° |
| 2026-04-18 12:28 | 34.34720 | 134.12646 | 41052 ft | 576 kts | 25° |
| 2026-04-18 12:28 | 34.41433 | 134.17957 | 41056 ft | 576 kts | 25° |
| 2026-04-18 12:29 | 34.48143 | 134.23269 | 41057 ft | 576 kts | 25° |
| 2026-04-18 12:29 | 34.54863 | 134.28578 | 41052 ft | 576 kts | 25° |
| 2026-04-18 12:30 | 34.61580 | 134.33887 | 41063 ft | 577 kts | 25° |
| 2026-04-18 12:30 | 34.68304 | 134.39209 | 41060 ft | 577 kts | 25° |
| 2026-04-18 12:31 | 34.75013 | 134.44531 | 41065 ft | 577 kts | 25° |
| 2026-04-18 12:31 | 34.81594 | 134.50208 | 41066 ft | 583 kts | 30° |
| 2026-04-18 12:32 | 34.87947 | 134.56361 | 41070 ft | 584 kts | 31° |
| 2026-04-18 12:32 | 34.94300 | 134.62523 | 41069 ft | 583 kts | 31° |
| 2026-04-18 12:33 | 35.00691 | 134.68612 | 41062 ft | 582 kts | 30° |
| 2026-04-18 12:33 | 35.07094 | 134.74648 | 41067 ft | 582 kts | 30° |
| 2026-04-18 12:34 | 35.13502 | 134.80694 | 41074 ft | 582 kts | 30° |
| 2026-04-18 12:34 | 35.19898 | 134.86747 | 41075 ft | 582 kts | 30° |
| 2026-04-18 12:35 | 35.26293 | 134.92822 | 41076 ft | 582 kts | 30° |
| 2026-04-18 12:35 | 35.32673 | 134.98947 | 41085 ft | 582 kts | 31° |
| 2026-04-18 12:36 | 35.39033 | 135.05075 | 41088 ft | 582 kts | 31° |
| 2026-04-18 12:36 | 35.45403 | 135.11192 | 41090 ft | 582 kts | 31° |
| 2026-04-18 12:37 | 35.51316 | 135.18115 | 41091 ft | 591 kts | 40° |
| 2026-04-18 12:37 | 35.56905 | 135.25544 | 41091 ft | 592 kts | 41° |
| 2026-04-18 12:38 | 35.62422 | 135.33077 | 41092 ft | 593 kts | 42° |
| 2026-04-18 12:38 | 35.67918 | 135.40625 | 41092 ft | 593 kts | 42° |
| 2026-04-18 12:39 | 35.73390 | 135.48141 | 41087 ft | 593 kts | 42° |
| 2026-04-18 12:39 | 35.78891 | 135.55699 | 41088 ft | 593 kts | 42° |
| 2026-04-18 12:40 | 35.84432 | 135.63323 | 41086 ft | 593 kts | 42° |
| 2026-04-18 12:40 | 35.89886 | 135.70847 | 41087 ft | 592 kts | 42° |
| 2026-04-18 12:41 | 35.95366 | 135.78426 | 41084 ft | 592 kts | 42° |
| 2026-04-18 12:41 | 36.00841 | 135.86014 | 41084 ft | 592 kts | 42° |
| 2026-04-18 12:42 | 36.06314 | 135.93616 | 41083 ft | 591 kts | 42° |
| 2026-04-18 12:42 | 36.11774 | 136.01218 | 41075 ft | 591 kts | 42° |
| 2026-04-18 12:43 | 36.17224 | 136.08823 | 41088 ft | 591 kts | 42° |
| 2026-04-18 12:43 | 36.22673 | 136.16444 | 41090 ft | 591 kts | 42° |
| 2026-04-18 12:44 | 36.28115 | 136.24073 | 41081 ft | 590 kts | 42° |
| 2026-04-18 12:44 | 36.33549 | 136.31707 | 41082 ft | 590 kts | 42° |
| 2026-04-18 12:45 | 36.38994 | 136.39326 | 41074 ft | 587 kts | 39° |
| 2026-04-18 12:45 | 36.44796 | 136.46402 | 41077 ft | 584 kts | 37° |
| 2026-04-18 12:46 | 36.50689 | 136.53338 | 41080 ft | 583 kts | 36° |
| 2026-04-18 12:46 | 36.56614 | 136.60231 | 41089 ft | 583 kts | 36° |
| 2026-04-18 12:47 | 36.62492 | 136.67085 | 41097 ft | 583 kts | 36° |
| 2026-04-18 12:47 | 36.68433 | 136.74052 | 41102 ft | 583 kts | 36° |
| 2026-04-18 12:48 | 36.74328 | 136.80989 | 41101 ft | 582 kts | 36° |
| 2026-04-18 12:48 | 36.80208 | 136.87928 | 41098 ft | 582 kts | 36° |
| 2026-04-18 12:49 | 36.86083 | 136.94880 | 41098 ft | 582 kts | 36° |
| 2026-04-18 12:49 | 36.91956 | 137.01842 | 41103 ft | 582 kts | 36° |
| 2026-04-18 12:50 | 36.97824 | 137.08809 | 41115 ft | 581 kts | 36° |
| 2026-04-18 12:50 | 37.03680 | 137.15782 | 41111 ft | 581 kts | 36° |
| 2026-04-18 12:51 | 37.09522 | 137.22757 | 41114 ft | 580 kts | 36° |
| 2026-04-18 12:51 | 37.15361 | 137.29744 | 41117 ft | 579 kts | 36° |
| 2026-04-18 12:52 | 37.21181 | 137.36724 | 41122 ft | 578 kts | 36° |
| 2026-04-18 12:52 | 37.26983 | 137.43696 | 41122 ft | 577 kts | 36° |
| 2026-04-18 12:53 | 37.32740 | 137.50629 | 41123 ft | 577 kts | 36° |
| 2026-04-18 12:53 | 37.38567 | 137.57662 | 41121 ft | 577 kts | 36° |
| 2026-04-18 12:54 | 37.44312 | 137.64611 | 41127 ft | 577 kts | 36° |
| 2026-04-18 12:54 | 37.50093 | 137.71621 | 41127 ft | 577 kts | 36° |
| 2026-04-18 12:55 | 37.55861 | 137.78632 | 41129 ft | 576 kts | 36° |
| 2026-04-18 12:55 | 37.61632 | 137.85660 | 41131 ft | 576 kts | 36° |
| 2026-04-18 12:56 | 37.67385 | 137.92685 | 41131 ft | 576 kts | 36° |
| 2026-04-18 12:56 | 37.73138 | 137.99725 | 41131 ft | 576 kts | 36° |
| 2026-04-18 12:57 | 37.78879 | 138.06766 | 41131 ft | 575 kts | 36° |
| 2026-04-18 12:57 | 37.84621 | 138.13824 | 41133 ft | 575 kts | 36° |
| 2026-04-18 12:58 | 37.90361 | 138.20896 | 41129 ft | 575 kts | 36° |
| 2026-04-18 12:58 | 37.96089 | 138.27969 | 41130 ft | 575 kts | 36° |
| 2026-04-18 12:59 | 38.01815 | 138.35056 | 41123 ft | 575 kts | 36° |
| 2026-04-18 12:59 | 38.07736 | 138.41739 | 41137 ft | 562 kts | 26° |
| 2026-04-18 13:00 | 38.14163 | 138.47312 | 41128 ft | 557 kts | 24° |
| 2026-04-18 13:00 | 38.20668 | 138.52661 | 41127 ft | 556 kts | 23° |
| 2026-04-18 13:01 | 38.27176 | 138.57962 | 41126 ft | 555 kts | 23° |
| 2026-04-18 13:01 | 38.32581 | 138.62388 | 41124 ft | 556 kts | 23° |
| 2026-04-18 13:02 | 38.39073 | 138.67734 | 41122 ft | 555 kts | 23° |
| 2026-04-18 13:02 | 38.45555 | 138.73092 | 41120 ft | 555 kts | 23° |
| 2026-04-18 13:03 | 38.53071 | 138.79321 | 41119 ft | 554 kts | 24° |
| 2026-04-18 13:03 | 38.61697 | 138.86487 | 41121 ft | 553 kts | 24° |
| 2026-04-18 13:04 | 38.68139 | 138.91852 | 41116 ft | 552 kts | 24° |
| 2026-04-18 13:04 | 38.74576 | 138.97223 | 41113 ft | 552 kts | 24° |
| 2026-04-18 13:05 | 38.80998 | 139.02594 | 41113 ft | 551 kts | 24° |
| 2026-04-18 13:05 | 38.87418 | 139.07976 | 41112 ft | 551 kts | 24° |
| 2026-04-18 13:06 | 38.93785 | 139.13324 | 41105 ft | 550 kts | 24° |
| 2026-04-18 13:06 | 39.00222 | 139.18744 | 41108 ft | 550 kts | 24° |
| 2026-04-18 13:07 | 39.06579 | 139.24108 | 41107 ft | 549 kts | 24° |
| 2026-04-18 13:07 | 39.12956 | 139.29500 | 41102 ft | 549 kts | 24° |
| 2026-04-18 13:08 | 39.19339 | 139.34909 | 41104 ft | 548 kts | 24° |
| 2026-04-18 13:08 | 39.25710 | 139.40320 | 41102 ft | 548 kts | 24° |
| 2026-04-18 13:09 | 39.32067 | 139.45731 | 41096 ft | 548 kts | 24° |
| 2026-04-18 13:09 | 39.38425 | 139.51156 | 41101 ft | 548 kts | 24° |
| 2026-04-18 13:10 | 39.44782 | 139.56591 | 41087 ft | 547 kts | 25° |
| 2026-04-18 13:10 | 39.51122 | 139.62025 | 41090 ft | 547 kts | 25° |
| 2026-04-18 13:11 | 39.57462 | 139.67470 | 41088 ft | 546 kts | 25° |
| 2026-04-18 13:11 | 39.63792 | 139.72919 | 41084 ft | 546 kts | 25° |
| 2026-04-18 13:12 | 39.70112 | 139.78371 | 41079 ft | 546 kts | 25° |
| 2026-04-18 13:12 | 39.76427 | 139.83832 | 41078 ft | 545 kts | 25° |
| 2026-04-18 13:13 | 39.82741 | 139.89306 | 41075 ft | 545 kts | 25° |
| 2026-04-18 13:13 | 39.89030 | 139.94822 | 41079 ft | 545 kts | 25° |
| 2026-04-18 13:14 | 39.95306 | 140.00360 | 41075 ft | 544 kts | 25° |
| 2026-04-18 13:14 | 40.01565 | 140.05890 | 41068 ft | 543 kts | 26° |
| 2026-04-18 13:15 | 40.07819 | 140.11422 | 41068 ft | 542 kts | 26° |
| 2026-04-18 13:15 | 40.14058 | 140.16951 | 41070 ft | 542 kts | 26° |
| 2026-04-18 13:16 | 40.20285 | 140.22482 | 41066 ft | 541 kts | 26° |
| 2026-04-18 13:16 | 40.26508 | 140.28021 | 41060 ft | 541 kts | 26° |
| 2026-04-18 13:17 | 40.32689 | 140.33535 | 41056 ft | 540 kts | 26° |
| 2026-04-18 13:17 | 40.38891 | 140.39081 | 41050 ft | 540 kts | 26° |
| 2026-04-18 13:18 | 40.45083 | 140.44632 | 41042 ft | 539 kts | 26° |
| 2026-04-18 13:18 | 40.51277 | 140.50196 | 41024 ft | 539 kts | 26° |
| 2026-04-18 13:19 | 40.57468 | 140.55771 | 41010 ft | 539 kts | 26° |
| 2026-04-18 13:19 | 40.63650 | 140.61350 | 40998 ft | 538 kts | 26° |
| 2026-04-18 13:20 | 40.69824 | 140.66934 | 40996 ft | 538 kts | 27° |
| 2026-04-18 13:20 | 40.76251 | 140.71644 | 41000 ft | 521 kts | 14° |
| 2026-04-18 13:21 | 40.82973 | 140.75143 | 41000 ft | 518 kts | 12° |
| 2026-04-18 13:21 | 40.89720 | 140.78447 | 41003 ft | 517 kts | 11° |
| 2026-04-18 13:22 | 40.96463 | 140.81733 | 41006 ft | 516 kts | 11° |
| 2026-04-18 13:22 | 41.03193 | 140.85044 | 41002 ft | 515 kts | 12° |
| 2026-04-18 13:23 | 41.09901 | 140.88366 | 40996 ft | 514 kts | 12° |
| 2026-04-18 13:23 | 41.16600 | 140.91693 | 40994 ft | 514 kts | 12° |
| 2026-04-18 13:24 | 41.23302 | 140.95029 | 40990 ft | 514 kts | 12° |
| 2026-04-18 13:24 | 41.29997 | 140.98369 | 40992 ft | 514 kts | 12° |
| 2026-04-18 13:25 | 41.36697 | 141.01700 | 40981 ft | 514 kts | 11° |
| 2026-04-18 13:25 | 41.43411 | 141.04989 | 40982 ft | 514 kts | 11° |
| 2026-04-18 13:26 | 41.50132 | 141.08287 | 40972 ft | 515 kts | 11° |
| 2026-04-18 13:26 | 41.56855 | 141.11606 | 40965 ft | 516 kts | 12° |
| 2026-04-18 13:27 | 41.63581 | 141.14939 | 40957 ft | 516 kts | 12° |
| 2026-04-18 13:27 | 41.70324 | 141.18292 | 40953 ft | 517 kts | 12° |
| 2026-04-18 13:28 | 41.77017 | 141.21670 | 40953 ft | 518 kts | 12° |
| 2026-04-18 13:28 | 41.83752 | 141.25095 | 40953 ft | 518 kts | 12° |
| 2026-04-18 13:29 | 41.90537 | 141.28549 | 40948 ft | 518 kts | 12° |
| 2026-04-18 13:29 | 41.97223 | 141.31957 | 40947 ft | 518 kts | 12° |
| 2026-04-18 13:30 | 42.03963 | 141.35350 | 40942 ft | 517 kts | 11° |
| 2026-04-18 13:30 | 42.10705 | 141.38702 | 40927 ft | 517 kts | 11° |
| 2026-04-18 13:31 | 42.17453 | 141.42072 | 40936 ft | 517 kts | 12° |
| 2026-04-18 13:31 | 42.24200 | 141.45460 | 40933 ft | 517 kts | 12° |
| 2026-04-18 13:32 | 42.30935 | 141.48854 | 40927 ft | 517 kts | 12° |
| 2026-04-18 13:32 | 42.37669 | 141.52256 | 40928 ft | 517 kts | 12° |
| 2026-04-18 13:33 | 42.44405 | 141.55667 | 40916 ft | 517 kts | 12° |
| 2026-04-18 13:33 | 42.51134 | 141.59081 | 40910 ft | 516 kts | 12° |
| 2026-04-18 13:34 | 42.57856 | 141.62500 | 40899 ft | 516 kts | 12° |
| 2026-04-18 13:34 | 42.64564 | 141.65921 | 40886 ft | 515 kts | 12° |
| 2026-04-18 13:35 | 42.71356 | 141.68465 | 40886 ft | 496 kts | 358° |
| 2026-04-18 13:35 | 42.78174 | 141.69105 | 40886 ft | 489 kts | 354° |
| 2026-04-18 13:36 | 42.84971 | 141.69401 | 40891 ft | 488 kts | 353° |
| 2026-04-18 13:36 | 42.91747 | 141.69642 | 40892 ft | 487 kts | 353° |
| 2026-04-18 13:37 | 42.98511 | 141.69905 | 40898 ft | 487 kts | 353° |
| 2026-04-18 13:37 | 43.05289 | 141.70189 | 40894 ft | 487 kts | 353° |
| 2026-04-18 13:38 | 43.12067 | 141.70480 | 40897 ft | 487 kts | 353° |
| 2026-04-18 13:38 | 43.18843 | 141.70773 | 40895 ft | 487 kts | 353° |
| 2026-04-18 13:39 | 43.25611 | 141.71063 | 40888 ft | 487 kts | 353° |
| 2026-04-18 13:39 | 43.32391 | 141.71354 | 40886 ft | 488 kts | 353° |
| 2026-04-18 13:40 | 43.39177 | 141.71645 | 40888 ft | 488 kts | 353° |
| 2026-04-18 13:40 | 43.45925 | 141.71937 | 40881 ft | 488 kts | 354° |
| 2026-04-18 13:41 | 43.52721 | 141.72230 | 40881 ft | 489 kts | 354° |
| 2026-04-18 13:41 | 43.59525 | 141.72526 | 40873 ft | 489 kts | 354° |
| 2026-04-18 13:42 | 43.66331 | 141.72824 | 40869 ft | 489 kts | 354° |
| 2026-04-18 13:42 | 43.73138 | 141.73124 | 40864 ft | 489 kts | 354° |
| 2026-04-18 13:43 | 43.79943 | 141.73411 | 40864 ft | 490 kts | 354° |
| 2026-04-18 13:43 | 43.86758 | 141.73695 | 40845 ft | 490 kts | 354° |
| 2026-04-18 13:44 | 43.93565 | 141.73982 | 40861 ft | 490 kts | 354° |
| 2026-04-18 13:44 | 44.00385 | 141.74273 | 40856 ft | 490 kts | 354° |
| 2026-04-18 13:45 | 44.07199 | 141.74564 | 40851 ft | 490 kts | 355° |
| 2026-04-18 13:45 | 44.14016 | 141.74856 | 40848 ft | 490 kts | 355° |
| 2026-04-18 13:46 | 44.20835 | 141.75149 | 40848 ft | 490 kts | 355° |
| 2026-04-18 13:46 | 44.27648 | 141.75442 | 40846 ft | 490 kts | 355° |
| 2026-04-18 13:47 | 44.34464 | 141.75737 | 40842 ft | 490 kts | 355° |
| 2026-04-18 13:47 | 44.41235 | 141.76029 | 40839 ft | 490 kts | 355° |
| 2026-04-18 13:48 | 44.48050 | 141.76325 | 40839 ft | 490 kts | 355° |
| 2026-04-18 13:48 | 44.54873 | 141.76621 | 40823 ft | 490 kts | 355° |
| 2026-04-18 13:49 | 44.61693 | 141.76918 | 40830 ft | 490 kts | 355° |
| 2026-04-18 13:49 | 44.68507 | 141.77216 | 40826 ft | 490 kts | 355° |
| 2026-04-18 13:50 | 44.75331 | 141.77515 | 40825 ft | 490 kts | 355° |
| 2026-04-18 13:50 | 44.81002 | 141.77763 | 40743 ft | 490 kts | 355° |
| 2026-04-18 13:51 | 44.84401 | 141.77914 | 40510 ft | 488 kts | 355° |
| 2026-04-18 13:51 | 44.87787 | 141.78064 | 40102 ft | 486 kts | 355° |
| 2026-04-18 13:51 | 44.91177 | 141.78213 | 39419 ft | 488 kts | 355° |
| 2026-04-18 13:51 | 44.94575 | 141.78359 | 38742 ft | 490 kts | 356° |
| 2026-04-18 13:52 | 44.97987 | 141.78506 | 38011 ft | 490 kts | 356° |
| 2026-04-18 13:52 | 45.01396 | 141.78656 | 37220 ft | 490 kts | 356° |
| 2026-04-18 13:52 | 45.04802 | 141.78813 | 36448 ft | 490 kts | 356° |
| 2026-04-18 13:52 | 45.08210 | 141.78971 | 35689 ft | 490 kts | 356° |
| 2026-04-18 13:53 | 45.11604 | 141.79125 | 34938 ft | 489 kts | 356° |
| 2026-04-18 13:53 | 45.15002 | 141.79282 | 34201 ft | 487 kts | 356° |
| 2026-04-18 13:53 | 45.18383 | 141.79443 | 33533 ft | 484 kts | 356° |
| 2026-04-18 13:53 | 45.21723 | 141.79609 | 32915 ft | 478 kts | 356° |
| 2026-04-18 13:54 | 45.25029 | 141.79776 | 32356 ft | 471 kts | 356° |
| 2026-04-18 13:54 | 45.28277 | 141.79943 | 31803 ft | 465 kts | 356° |
| 2026-04-18 13:54 | 45.31490 | 141.80107 | 31247 ft | 459 kts | 356° |
| 2026-04-18 13:54 | 45.34666 | 141.80268 | 30704 ft | 453 kts | 356° |
| 2026-04-18 13:55 | 45.37803 | 141.80425 | 30175 ft | 448 kts | 356° |
| 2026-04-18 13:55 | 45.40893 | 141.80578 | 29606 ft | 443 kts | 356° |
| 2026-04-18 13:55 | 45.43953 | 141.80775 | 29041 ft | 437 kts | 358° |
| 2026-04-18 13:55 | 45.46964 | 141.81040 | 28523 ft | 430 kts | 358° |
| 2026-04-18 13:56 | 45.49931 | 141.81338 | 28018 ft | 424 kts | 359° |
| 2026-04-18 13:56 | 45.52858 | 141.81645 | 27513 ft | 418 kts | 359° |
| 2026-04-18 13:56 | 45.55738 | 141.81945 | 27010 ft | 413 kts | 359° |
| 2026-04-18 13:56 | 45.58585 | 141.82233 | 26516 ft | 407 kts | 359° |
| 2026-04-18 13:57 | 45.61393 | 141.82508 | 26023 ft | 403 kts | 359° |
| 2026-04-18 13:57 | 45.64173 | 141.82771 | 25535 ft | 398 kts | 359° |
| 2026-04-18 13:57 | 45.66925 | 141.83025 | 25042 ft | 394 kts | 359° |
| 2026-04-18 13:57 | 45.69649 | 141.83275 | 24551 ft | 391 kts | 359° |
| 2026-04-18 13:58 | 45.72351 | 141.83538 | 24057 ft | 388 kts | 1° |
| 2026-04-18 13:58 | 45.74971 | 141.84267 | 23578 ft | 391 kts | 13° |
| 2026-04-18 13:58 | 45.77524 | 141.85786 | 23009 ft | 393 kts | 21° |
| 2026-04-18 13:58 | 45.79949 | 141.87554 | 22498 ft | 390 kts | 23° |
| 2026-04-18 13:59 | 45.82308 | 141.89336 | 21995 ft | 386 kts | 24° |
| 2026-04-18 13:59 | 45.84669 | 141.91132 | 21491 ft | 382 kts | 24° |
| 2026-04-18 13:59 | 45.87006 | 141.92912 | 20990 ft | 379 kts | 24° |
| 2026-04-18 13:59 | 45.89320 | 141.94677 | 20496 ft | 376 kts | 24° |
| 2026-04-18 14:00 | 45.91620 | 141.96432 | 19990 ft | 373 kts | 24° |
| 2026-04-18 14:00 | 45.93908 | 141.98180 | 19508 ft | 371 kts | 24° |
| 2026-04-18 14:00 | 45.96175 | 141.99913 | 19008 ft | 368 kts | 24° |
| 2026-04-18 14:00 | 45.98429 | 142.01639 | 18520 ft | 367 kts | 24° |
| 2026-04-18 14:01 | 46.00678 | 142.03362 | 18022 ft | 365 kts | 24° |
| 2026-04-18 14:01 | 46.02909 | 142.05073 | 17487 ft | 362 kts | 25° |
| 2026-04-18 14:01 | 46.05124 | 142.06775 | 17003 ft | 359 kts | 25° |
| 2026-04-18 14:01 | 46.07320 | 142.08462 | 16519 ft | 356 kts | 25° |
| 2026-04-18 14:02 | 46.09497 | 142.10136 | 16036 ft | 354 kts | 25° |
| 2026-04-18 14:02 | 46.11661 | 142.11801 | 15561 ft | 352 kts | 25° |
| 2026-04-18 14:02 | 46.13817 | 142.13460 | 15079 ft | 350 kts | 25° |
| 2026-04-18 14:02 | 46.15960 | 142.15112 | 14587 ft | 349 kts | 25° |
| 2026-04-18 14:03 | 46.18096 | 142.16761 | 14125 ft | 347 kts | 25° |
| 2026-04-18 14:03 | 46.20225 | 142.18405 | 13644 ft | 346 kts | 26° |
| 2026-04-18 14:03 | 46.22343 | 142.20043 | 13132 ft | 345 kts | 26° |
| 2026-04-18 14:03 | 46.24451 | 142.21675 | 12658 ft | 342 kts | 26° |
| 2026-04-18 14:04 | 46.26536 | 142.23290 | 12186 ft | 339 kts | 26° |
| 2026-04-18 14:04 | 46.28538 | 142.24848 | 11998 ft | 310 kts | 26° |
| 2026-04-18 14:04 | 46.30390 | 142.26286 | 11899 ft | 296 kts | 26° |
| 2026-04-18 14:04 | 46.32172 | 142.27671 | 11771 ft | 286 kts | 26° |
| 2026-04-18 14:05 | 46.33794 | 142.29275 | 11613 ft | 281 kts | 38° |
| 2026-04-18 14:05 | 46.35252 | 142.31265 | 11246 ft | 295 kts | 43° |
| 2026-04-18 14:05 | 46.36698 | 142.33402 | 10907 ft | 298 kts | 44° |
| 2026-04-18 14:05 | 46.38139 | 142.35550 | 10458 ft | 298 kts | 44° |
| 2026-04-18 14:06 | 46.39580 | 142.37692 | 9942 ft | 295 kts | 44° |
| 2026-04-18 14:06 | 46.41017 | 142.39825 | 9454 ft | 296 kts | 44° |
| 2026-04-18 14:06 | 46.42458 | 142.41961 | 8997 ft | 295 kts | 44° |
| 2026-04-18 14:06 | 46.43884 | 142.44073 | 8550 ft | 293 kts | 44° |
| 2026-04-18 14:07 | 46.45303 | 142.46177 | 8106 ft | 291 kts | 44° |
| 2026-04-18 14:07 | 46.46716 | 142.48271 | 7675 ft | 289 kts | 44° |
| 2026-04-18 14:07 | 46.48116 | 142.50347 | 7250 ft | 287 kts | 44° |
| 2026-04-18 14:07 | 46.49507 | 142.52410 | 6848 ft | 285 kts | 44° |
| 2026-04-18 14:08 | 46.52258 | 142.56496 | 6006 ft | 281 kts | 44° |
| 2026-04-18 14:08 | 46.53621 | 142.58520 | 5581 ft | 279 kts | 44° |
| 2026-04-18 14:08 | 46.54972 | 142.60529 | 5175 ft | 277 kts | 45° |
| 2026-04-18 14:09 | 46.56311 | 142.62522 | 4777 ft | 274 kts | 45° |
| 2026-04-18 14:09 | 46.57634 | 142.64493 | 4494 ft | 269 kts | 45° |
| 2026-04-18 14:09 | 46.58940 | 142.66440 | 4209 ft | 269 kts | 45° |
| 2026-04-18 14:09 | 46.60257 | 142.68344 | 3836 ft | 267 kts | 41° |
| 2026-04-18 14:10 | 46.61840 | 142.69687 | 3451 ft | 264 kts | 17° |
| 2026-04-18 14:10 | 46.63570 | 142.70168 | 3302 ft | 240 kts | 7° |
| 2026-04-18 14:10 | 46.65141 | 142.70436 | 3195 ft | 216 kts | 6° |
| 2026-04-18 14:10 | 46.66574 | 142.70647 | 3080 ft | 205 kts | 5° |
| 2026-04-18 14:11 | 46.67972 | 142.70818 | 3031 ft | 192 kts | 4° |
| 2026-04-18 14:11 | 46.69240 | 142.70955 | 2930 ft | 180 kts | 3° |
| 2026-04-18 14:11 | 46.70461 | 142.71070 | 2768 ft | 172 kts | 3° |
| 2026-04-18 14:11 | 46.71641 | 142.71167 | 2641 ft | 169 kts | 2° |
| 2026-04-18 14:12 | 46.72805 | 142.71343 | 2591 ft | 168 kts | 14° |
| 2026-04-18 14:12 | 46.73908 | 142.71562 | 2534 ft | 155 kts | 359° |
| 2026-04-18 14:12 | 46.74948 | 142.71468 | 2320 ft | 145 kts | 356° |
| 2026-04-18 14:12 | 46.75920 | 142.71433 | 2114 ft | 135 kts | 1° |
| 2026-04-18 14:13 | 46.76840 | 142.71461 | 1946 ft | 130 kts | 3° |
| 2026-04-18 14:13 | 46.77742 | 142.71487 | 1785 ft | 130 kts | 2° |
| 2026-04-18 14:13 | 46.78644 | 142.71506 | 1611 ft | 129 kts | 2° |
| 2026-04-18 14:13 | 46.79541 | 142.71526 | 1448 ft | 129 kts | 2° |
| 2026-04-18 14:14 | 46.80435 | 142.71547 | 1285 ft | 128 kts | 2° |
| 2026-04-18 14:14 | 46.81322 | 142.71569 | 1113 ft | 127 kts | 2° |
| 2026-04-18 14:14 | 46.82198 | 142.71590 | 947 ft | 125 kts | 1° |
| 2026-04-18 14:14 | 46.83061 | 142.71606 | 785 ft | 123 kts | 0° |
| 2026-04-18 14:15 | 46.83906 | 142.71627 | 638 ft | 119 kts | 1° |
| 2026-04-18 14:15 | 46.84720 | 142.71654 | 473 ft | 115 kts | 1° |
| 2026-04-18 14:15 | 46.85525 | 142.71660 | 363 ft | 116 kts | 1° |
| 2026-04-18 14:15 | 46.86342 | 142.71686 | 230 ft | 119 kts | 2° |
| 2026-04-18 14:16 | 46.87174 | 142.71703 | 122 ft | 120 kts | 0° |
| 2026-04-18 14:16 | 46.88007 | 142.71725 | 93 ft | 110 kts | 1° |
| 2026-04-18 14:16 | 46.88650 | 142.71745 | 88 ft | 76 kts | 1° |
| 2026-04-18 14:16 | 46.88967 | 142.71751 | 88 ft | 31 kts | 0° |
| 2026-04-18 14:17 | 46.89074 | 142.71836 | 91 ft | 15 kts | 70° |
| 2026-04-18 14:17 | 46.89066 | 142.71968 | 90 ft | 12 kts | 116° |
| 2026-04-18 14:17 | 46.88941 | 142.72094 | 90 ft | 11 kts | 159° |
| 2026-04-18 14:18 | 46.88862 | 142.72174 | 90 ft | 9 kts | 96° |
| 2026-04-18 14:18 | 46.88860 | 142.72211 | 89 ft | 0 kts | 94° |
| 2026-04-18 14:19 | 46.88860 | 142.72222 | 89 ft | 0 kts | 93° |